Assenede, Belgium
Current Conditions -  °F | °C
As of 10:55 AM on Tuesday 21 Oct 2014 (Local Time) from EHFS Reporting Station
Overcast Overcast  
Wind Chill: 55°   Ceiling: 800
Heat Index: 55°   Visibility: 6mi
Dew Point: 54°   Wind: 30mph
Humidity: 94%   Direction: 200°SSW
Pressure: 29.59"   Gusts: NA
Location:  51.23°N, 3.75°E
Report Text: EHFS 210855Z AUTO 20026KT 9000 SCT006/// BKN008/// OVC010///13/12 Q1002
Loading
Personal Weather Stations






























Interactive Weather Map
Tropical Storm Tracking
New forecast layout! Learn more

10-Day Weather Forecast

Advertisements
Track Severe Weather on mobile